Jackson, WY

5:51 AM MST on February 24, 2017 (GMT -0700)
Jackson Hole | | Change Station

Elev 6447 ft 43.61 °N, 110.74 °W | Updated 16 minutes ago

Overcast
Overcast
16 °F
Feels Like 9 °F
N
5
Wind Variable Wind from SSW

Today
High -- | Low -- °F
--% Chance of Precip.
Yesterday
High -- | Low -- °F
Precip. -- in
Pressure 29.81 in
Visibility 9.0 miles
Clouds Mostly Cloudy 2500 ft
Overcast 5500 ft
Windchill 9 °F
Dew Point 16 °F
Humidity 100%
Rainfall 0.00 in
Snow Depth Not available.
7:07 AM 6:05 PM
Waning Crescent, 5% visible
METAR KJAC 241235Z AUTO 21004KT 9SM BKN025 OVC055 M09/M09 A2981 RMK AO1
Pressure 29.81 in
Visibility 9.0 miles
Clouds Mostly Cloudy 2500 ft
Overcast 5500 ft
Windchill 9 °F
Dew Point 16 °F
Humidity 100%
Rainfall 0.00 in
Snow Depth Not available.
7:07 AM 6:05 PM
Waning Crescent, 5% visible
METAR KJAC 241235Z AUTO 21004KT 9SM BKN025 OVC055 M09/M09 A2981 RMK AO1

Get Your Daily Forecast Email!

Thanks for signing up!

Be on the lookout for a verification email in your inbox.

You'll start receiving the daily forecast at 8 AM.

×

10-Day Weather Forecast

Almanac

Astronomy

Feb. 24, 2017 Rise Set
Actual Time
Civil Twilight
Nautical Twilight
Astronomical Twilight
Moon
Length of Visible Light
Length of Day
Tomorrow will be .
, % of the Moon is Illuminated

Today's Extremes

State Highs State Lows

Community

WunderPhotos

Upload Photos

1,962,540 photos uploaded!

WunderBlog® & News

Nearby

Air Quality

  Air Quality AQ Index Pollutant
Not available.

Snow Depth

Station Depth Elevation

Earthquake Activity

City Distance Mag. Time & Date
Minimum magnitude displayed is 2.5.

Coastal Water Temperatures

Place Temperature

Stations

Nearby Weather Stations

Station Location Temp. Windchill Dew Point Humidity Wind Precip. Elev Updated Type
                   

Watches & Warnings

There are currently no watches in effect.